Time;durP1;ratioP1;P1;durP2;ratioP2;P2;SDS_P1;SDS_P2;PMS_P1;PMS_P2;Temp;Humidity;BMP_temperature;BMP_pressure;BME280_temperature;BME280_humidity;BME280_pressure;Samples;Min_cycle;Max_cycle;Signal;HPM_P1;HPM_P2
2024/01/10 00:00:12;;;;;;;15.38;4.55;;;;;;;;;;5035661;28;20021;-67
2024/01/10 00:02:37;;;;;;;27.13;11.93;;;;;;;;;;5035445;28;20171;-67
2024/01/10 00:05:03;;;;;;;23.33;11.70;;;;;;;;;;5035386;28;20032;-67
2024/01/10 00:07:28;;;;;;;20.80;10.02;;;;;;;;;;5035250;28;20254;-67
2024/01/10 00:09:54;;;;;;;15.60;6.07;;;;;;;;;;5035155;28;20100;-67
2024/01/10 00:12:19;;;;;;;12.03;5.23;;;;;;;;;;5035149;28;20022;-67
2024/01/10 00:14:44;;;;;;;11.80;5.32;;;;;;;;;;5035113;28;20250;-67
2024/01/10 00:17:09;;;;;;;29.13;9.33;;;;;;;;;;5034989;28;20045;-67
2024/01/10 00:19:35;;;;;;;14.75;6.45;;;;;;;;;;5035075;28;20247;-67
2024/01/10 00:22:00;;;;;;;16.10;6.68;;;;;;;;;;5035006;28;20438;-67
2024/01/10 00:24:26;;;;;;;11.10;4.43;;;;;;;;;;5035114;28;20036;-67
2024/01/10 00:26:51;;;;;;;15.30;6.07;;;;;;;;;;5035312;28;20257;-67
2024/01/10 00:29:16;;;;;;;16.33;6.90;;;;;;;;;;5034814;28;20025;-67
2024/01/10 00:31:41;;;;;;;17.10;6.07;;;;;;;;;;5035065;28;20258;-67
2024/01/10 00:34:06;;;;;;;11.20;4.47;;;;;;;;;;5034788;28;20355;-67
2024/01/10 00:36:32;;;;;;;13.50;5.18;;;;;;;;;;5034801;28;20018;-67
2024/01/10 00:38:57;;;;;;;12.07;5.17;;;;;;;;;;5034768;28;20028;-67
2024/01/10 00:41:22;;;;;;;10.27;5.23;;;;;;;;;;5034643;28;20317;-67
2024/01/10 00:43:47;;;;;;;13.23;6.53;;;;;;;;;;5034601;28;20246;-67
2024/01/10 00:46:12;;;;;;;14.37;6.27;;;;;;;;;;5034621;28;20061;-67
2024/01/10 00:48:38;;;;;;;12.30;5.93;;;;;;;;;;5034525;28;20345;-67
2024/01/10 00:51:08;;;;;;;10.90;6.30;;;;;;;;;;5034405;28;20317;-67
2024/01/10 00:53:33;;;;;;;11.02;5.45;;;;;;;;;;5034649;28;20246;-67
2024/01/10 00:55:58;;;;;;;10.82;5.18;;;;;;;;;;5034487;28;20021;-67
2024/01/10 00:58:23;;;;;;;14.57;5.93;;;;;;;;;;5034539;28;20022;-67
2024/01/10 01:00:49;;;;;;;10.23;5.13;;;;;;;;;;5034284;28;20250;-67
2024/01/10 01:03:14;;;;;;;11.33;5.10;;;;;;;;;;5034249;28;20316;-67
2024/01/10 01:05:39;;;;;;;12.13;5.20;;;;;;;;;;5034420;28;20317;-67
2024/01/10 01:08:04;;;;;;;11.80;4.63;;;;;;;;;;5034381;28;20017;-67
2024/01/10 01:10:30;;;;;;;13.00;6.55;;;;;;;;;;5034269;28;20271;-67
2024/01/10 01:12:55;;;;;;;8.97;4.53;;;;;;;;;;5034124;28;20525;-67
2024/01/10 01:15:21;;;;;;;11.38;5.65;;;;;;;;;;5033882;28;20322;-67
2024/01/10 01:17:46;;;;;;;12.45;5.45;;;;;;;;;;5033833;28;20047;-67
2024/01/10 01:20:11;;;;;;;11.23;5.30;;;;;;;;;;5034152;28;20025;-67
2024/01/10 01:22:36;;;;;;;13.50;4.47;;;;;;;;;;5033938;28;20032;-67
2024/01/10 01:25:02;;;;;;;9.60;5.03;;;;;;;;;;5033337;28;20251;-67
2024/01/10 01:27:27;;;;;;;11.40;5.05;;;;;;;;;;5034143;28;20251;-67
2024/01/10 01:29:53;;;;;;;15.35;5.90;;;;;;;;;;5033677;28;20022;-67
2024/01/10 01:32:18;;;;;;;8.55;4.63;;;;;;;;;;5034041;28;20026;-67
2024/01/10 01:34:43;;;;;;;20.00;5.73;;;;;;;;;;5033964;28;20024;-67
2024/01/10 01:37:09;;;;;;;7.55;4.43;;;;;;;;;;5033995;28;20243;-67
2024/01/10 01:39:34;;;;;;;11.23;4.85;;;;;;;;;;5033721;28;20021;-67
2024/01/10 01:41:59;;;;;;;10.70;5.07;;;;;;;;;;5033565;28;20022;-67
2024/01/10 01:44:25;;;;;;;11.27;5.17;;;;;;;;;;5033621;28;20262;-67
2024/01/10 01:46:50;;;;;;;11.83;5.33;;;;;;;;;;5033526;28;20259;-67
2024/01/10 01:49:15;;;;;;;15.85;4.53;;;;;;;;;;5033478;28;20246;-67
2024/01/10 01:51:40;;;;;;;8.13;4.38;;;;;;;;;;5033693;28;20425;-67
2024/01/10 01:54:08;;;;;;;11.25;5.10;;;;;;;;;;5033382;28;20026;-67
2024/01/10 01:56:33;;;;;;;12.65;5.68;;;;;;;;;;5033436;28;20437;-67
2024/01/10 01:58:58;;;;;;;10.45;5.13;;;;;;;;;;5033411;28;20049;-67
2024/01/10 02:01:24;;;;;;;8.43;4.45;;;;;;;;;;5033331;28;20429;-67
2024/01/10 02:03:49;;;;;;;10.18;5.32;;;;;;;;;;5033257;28;20112;-67
2024/01/10 02:06:14;;;;;;;9.98;4.20;;;;;;;;;;5033520;28;20025;-67
2024/01/10 02:08:39;;;;;;;12.60;5.47;;;;;;;;;;5033226;28;20017;-67
2024/01/10 02:11:05;;;;;;;9.90;5.50;;;;;;;;;;5033410;28;20421;-67
2024/01/10 02:13:33;;;;;;;8.75;4.38;;;;;;;;;;5033111;28;20247;-67
2024/01/10 02:15:59;;;;;;;11.25;4.85;;;;;;;;;;5032957;28;20025;-67
2024/01/10 02:18:24;;;;;;;14.55;6.07;;;;;;;;;;5033187;28;20021;-67
2024/01/10 02:20:49;;;;;;;14.18;5.65;;;;;;;;;;5033087;28;20044;-67
2024/01/10 02:23:14;;;;;;;14.43;5.65;;;;;;;;;;5033114;28;20147;-67
2024/01/10 02:25:40;;;;;;;15.30;5.10;;;;;;;;;;5033144;28;20021;-67
2024/01/10 02:28:06;;;;;;;13.07;5.80;;;;;;;;;;5033082;28;20030;-67
2024/01/10 02:30:32;;;;;;;13.30;5.70;;;;;;;;;;5033272;28;20033;-67
2024/01/10 02:32:57;;;;;;;11.75;5.28;;;;;;;;;;5032972;28;20409;-67
2024/01/10 02:35:22;;;;;;;7.93;4.47;;;;;;;;;;5032998;28;20064;-67
2024/01/10 02:37:51;;;;;;;10.67;4.93;;;;;;;;;;5035715;28;20280;-67
2024/01/10 02:40:16;;;;;;;14.18;5.15;;;;;;;;;;5037213;28;20309;-67
2024/01/10 02:42:41;;;;;;;10.70;4.37;;;;;;;;;;5036871;28;20465;-67
2024/01/10 02:45:07;;;;;;;16.63;5.73;;;;;;;;;;5037073;28;20234;-67
2024/01/10 02:47:32;;;;;;;11.18;5.25;;;;;;;;;;5037155;28;20247;-67
2024/01/10 02:49:57;;;;;;;11.33;5.33;;;;;;;;;;5036669;28;20034;-67
2024/01/10 02:52:22;;;;;;;10.20;4.80;;;;;;;;;;5036693;28;20247;-67
2024/01/10 02:54:47;;;;;;;7.00;4.40;;;;;;;;;;5036619;28;20246;-67
2024/01/10 02:57:13;;;;;;;10.43;5.20;;;;;;;;;;5036639;28;20607;-67
2024/01/10 02:59:38;;;;;;;12.27;5.47;;;;;;;;;;5036871;28;20032;-67
2024/01/10 03:02:03;;;;;;;8.20;4.40;;;;;;;;;;5036624;28;20444;-67
2024/01/10 03:04:29;;;;;;;11.88;4.90;;;;;;;;;;5036399;28;20334;-67
2024/01/10 03:06:54;;;;;;;13.17;5.23;;;;;;;;;;5036464;28;20028;-67
2024/01/10 03:09:19;;;;;;;12.23;5.27;;;;;;;;;;5036315;28;20249;-67
2024/01/10 03:11:44;;;;;;;12.47;5.13;;;;;;;;;;5036586;28;20257;-67
2024/01/10 03:14:10;;;;;;;12.60;5.43;;;;;;;;;;5036326;28;20247;-67
2024/01/10 03:16:36;;;;;;;11.25;5.90;;;;;;;;;;5036075;28;20378;-67
2024/01/10 03:19:01;;;;;;;12.30;5.63;;;;;;;;;;5036219;28;20465;-67
2024/01/10 03:21:26;;;;;;;12.07;5.65;;;;;;;;;;5036456;28;20457;-68
2024/01/10 03:24:01;;;;;;;12.23;5.97;;;;;;;;;;5036190;28;20071;-67
2024/01/10 03:26:27;;;;;;;8.13;4.70;;;;;;;;;;5036103;28;20239;-67
2024/01/10 03:28:52;;;;;;;10.98;5.00;;;;;;;;;;5036041;28;20485;-67
2024/01/10 03:31:17;;;;;;;12.23;5.38;;;;;;;;;;5035901;28;20477;-67
2024/01/10 03:33:43;;;;;;;10.48;4.95;;;;;;;;;;5035973;28;20142;-67
2024/01/10 03:36:11;;;;;;;12.07;5.53;;;;;;;;;;5035955;28;20025;-67
2024/01/10 03:38:36;;;;;;;13.35;5.88;;;;;;;;;;5035878;28;20261;-67
2024/01/10 03:41:01;;;;;;;14.80;6.17;;;;;;;;;;5035890;28;20029;-67
2024/01/10 03:43:26;;;;;;;9.43;4.80;;;;;;;;;;5035776;28;20301;-67
2024/01/10 03:45:51;;;;;;;12.73;5.18;;;;;;;;;;5035976;28;20330;-67
2024/01/10 03:48:17;;;;;;;9.70;5.30;;;;;;;;;;5035321;28;20021;-67
2024/01/10 03:50:42;;;;;;;16.88;5.93;;;;;;;;;;5035820;28;20271;-67
2024/01/10 03:53:07;;;;;;;12.57;5.53;;;;;;;;;;5035665;28;20096;-67
2024/01/10 03:55:32;;;;;;;9.57;5.13;;;;;;;;;;5035537;28;20308;-67
2024/01/10 03:57:58;;;;;;;10.73;4.93;;;;;;;;;;5035582;28;20325;-67
2024/01/10 04:00:23;;;;;;;12.75;5.03;;;;;;;;;;5035682;28;20334;-68
2024/01/10 04:02:48;;;;;;;10.70;6.23;;;;;;;;;;5035724;28;20033;-67
2024/01/10 04:05:13;;;;;;;15.63;6.87;;;;;;;;;;5035363;28;20251;-67
2024/01/10 04:07:43;;;;;;;14.37;6.63;;;;;;;;;;5035590;28;20280;-67
2024/01/10 04:10:10;;;;;;;10.50;5.38;;;;;;;;;;5035473;28;20362;-67
2024/01/10 04:12:35;;;;;;;15.13;6.78;;;;;;;;;;5035357;28;20017;-67
2024/01/10 04:15:01;;;;;;;13.48;5.82;;;;;;;;;;5035199;28;20027;-67
2024/01/10 04:17:26;;;;;;;10.63;5.15;;;;;;;;;;5035022;28;20049;-67
2024/01/10 04:19:51;;;;;;;10.87;5.13;;;;;;;;;;5035358;28;20022;-67
2024/01/10 04:22:16;;;;;;;16.33;6.30;;;;;;;;;;5035330;28;20239;-67
2024/01/10 04:24:42;;;;;;;12.05;5.63;;;;;;;;;;5035030;28;20013;-67
2024/01/10 04:27:07;;;;;;;12.40;6.23;;;;;;;;;;5035010;28;20029;-67
2024/01/10 04:29:32;;;;;;;12.43;6.10;;;;;;;;;;5034794;28;20259;-67
2024/01/10 04:31:57;;;;;;;18.03;7.17;;;;;;;;;;5034879;28;20262;-67
2024/01/10 04:34:24;;;;;;;14.50;6.80;;;;;;;;;;5034797;28;20330;-67
2024/01/10 04:36:49;;;;;;;11.98;6.32;;;;;;;;;;5034738;28;20026;-68
2024/01/10 04:39:15;;;;;;;22.73;6.53;;;;;;;;;;5034675;28;20079;-68
2024/01/10 04:41:40;;;;;;;12.03;5.70;;;;;;;;;;5034687;28;20385;-67
2024/01/10 04:44:05;;;;;;;11.55;5.70;;;;;;;;;;5034721;28;20382;-67
2024/01/10 04:46:30;;;;;;;13.60;6.68;;;;;;;;;;5034825;28;20026;-67
2024/01/10 04:48:55;;;;;;;15.77;6.37;;;;;;;;;;5034534;28;20096;-67
2024/01/10 04:51:21;;;;;;;14.83;7.40;;;;;;;;;;5034384;28;20700;-67
2024/01/10 04:53:46;;;;;;;14.38;6.25;;;;;;;;;;5034427;28;20737;-67
2024/01/10 04:56:11;;;;;;;20.80;6.67;;;;;;;;;;5034448;28;20017;-67
2024/01/10 04:58:37;;;;;;;13.43;5.83;;;;;;;;;;5034222;28;20251;-67
2024/01/10 05:01:02;;;;;;;13.90;6.03;;;;;;;;;;5033667;28;20254;-67
2024/01/10 05:03:27;;;;;;;12.93;5.47;;;;;;;;;;5034276;28;20032;-67
2024/01/10 05:05:52;;;;;;;12.73;6.37;;;;;;;;;;5034531;28;20289;-67
2024/01/10 05:08:20;;;;;;;14.97;5.73;;;;;;;;;;5034429;28;20255;-68
2024/01/10 05:10:45;;;;;;;17.08;7.15;;;;;;;;;;5034021;28;20357;-67
2024/01/10 05:13:10;;;;;;;12.52;5.60;;;;;;;;;;5034066;28;20056;-67
2024/01/10 05:15:36;;;;;;;14.48;6.63;;;;;;;;;;5032032;28;20097;-67
2024/01/10 05:18:01;;;;;;;11.33;5.37;;;;;;;;;;5028145;28;20053;-67
2024/01/10 05:20:26;;;;;;;11.70;6.40;;;;;;;;;;5033141;28;20277;-67
2024/01/10 05:22:51;;;;;;;14.73;6.33;;;;;;;;;;5033186;28;20397;-67
2024/01/10 05:25:18;;;;;;;12.60;6.03;;;;;;;;;;5032982;28;20109;-67
2024/01/10 05:27:43;;;;;;;11.73;5.65;;;;;;;;;;5033227;28;20262;-67
2024/01/10 05:30:09;;;;;;;16.38;6.38;;;;;;;;;;5032786;28;20507;-67
2024/01/10 05:32:34;;;;;;;15.57;7.03;;;;;;;;;;5032467;28;20033;-67
2024/01/10 05:34:59;;;;;;;20.67;7.35;;;;;;;;;;5033281;28;20033;-67
2024/01/10 05:37:24;;;;;;;14.13;6.47;;;;;;;;;;5033647;28;20010;-67
2024/01/10 05:39:50;;;;;;;13.50;6.03;;;;;;;;;;5033680;28;20251;-67
2024/01/10 05:42:15;;;;;;;14.13;5.53;;;;;;;;;;5033613;28;20317;-67
2024/01/10 05:44:40;;;;;;;17.30;6.27;;;;;;;;;;5033538;28;20281;-67
2024/01/10 05:47:05;;;;;;;17.13;7.07;;;;;;;;;;5033749;28;20694;-67
2024/01/10 05:49:30;;;;;;;14.07;5.75;;;;;;;;;;5033371;28;20025;-67
2024/01/10 05:51:56;;;;;;;16.40;6.83;;;;;;;;;;5033431;28;20044;-67
2024/01/10 05:54:21;;;;;;;12.23;7.07;;;;;;;;;;5033426;28;20239;-67
2024/01/10 05:56:48;;;;;;;15.95;6.30;;;;;;;;;;5033449;28;20259;-67
2024/01/10 05:59:13;;;;;;;16.83;6.82;;;;;;;;;;5033397;28;20099;-67
2024/01/10 06:01:39;;;;;;;12.05;6.38;;;;;;;;;;5033410;28;20025;-67
2024/01/10 06:04:05;;;;;;;13.50;6.25;;;;;;;;;;5033403;28;20466;-67
2024/01/10 06:06:32;;;;;;;18.25;6.40;;;;;;;;;;5033587;28;20499;-67
2024/01/10 06:08:57;;;;;;;10.32;5.70;;;;;;;;;;5033560;28;20021;-67
2024/01/10 06:11:22;;;;;;;25.05;6.70;;;;;;;;;;5033308;28;20358;-67
2024/01/10 06:13:47;;;;;;;16.83;8.07;;;;;;;;;;5033133;28;20010;-67
2024/01/10 06:16:13;;;;;;;15.37;5.93;;;;;;;;;;5033130;28;20266;-67
2024/01/10 06:18:38;;;;;;;16.25;6.57;;;;;;;;;;5033419;28;20254;-67
2024/01/10 06:21:04;;;;;;;13.38;6.60;;;;;;;;;;5033182;28;20414;-67
2024/01/10 06:23:29;;;;;;;12.38;5.63;;;;;;;;;;5033082;28;20028;-67
2024/01/10 06:25:54;;;;;;;16.90;6.73;;;;;;;;;;5033115;28;20033;-67
2024/01/10 06:28:20;;;;;;;19.45;8.00;;;;;;;;;;5033297;28;20246;-67
2024/01/10 06:30:45;;;;;;;18.38;7.20;;;;;;;;;;5033057;28;20025;-67
2024/01/10 06:33:10;;;;;;;18.33;6.63;;;;;;;;;;5033090;28;20075;-67
2024/01/10 06:35:36;;;;;;;21.23;8.17;;;;;;;;;;5033062;28;20277;-67
2024/01/10 06:38:03;;;;;;;13.23;6.72;;;;;;;;;;5033239;28;20340;-67
2024/01/10 06:40:29;;;;;;;19.52;7.75;;;;;;;;;;5032955;28;20167;-67
2024/01/10 06:42:54;;;;;;;15.65;6.97;;;;;;;;;;5032953;28;20045;-68
2024/01/10 06:45:20;;;;;;;13.23;7.20;;;;;;;;;;5032949;28;20026;-67
2024/01/10 06:47:45;;;;;;;20.00;8.40;;;;;;;;;;5032844;28;20258;-67
2024/01/10 06:50:11;;;;;;;16.53;8.03;;;;;;;;;;5032912;28;20018;-67
2024/01/10 06:52:37;;;;;;;12.88;7.25;;;;;;;;;;5033182;28;20723;-67
2024/01/10 06:55:04;;;;;;;13.43;6.00;;;;;;;;;;5032846;28;20067;-67
2024/01/10 06:57:29;;;;;;;22.67;9.32;;;;;;;;;;5032791;28;20024;-68
2024/01/10 06:59:54;;;;;;;15.93;6.97;;;;;;;;;;5032788;28;20057;-67
2024/01/10 07:02:19;;;;;;;19.52;7.25;;;;;;;;;;5032771;28;20080;-67
2024/01/10 07:04:47;;;;;;;17.40;7.67;;;;;;;;;;5032809;28;20473;-67
2024/01/10 07:07:13;;;;;;;12.93;6.22;;;;;;;;;;5033060;28;20603;-67
2024/01/10 07:09:39;;;;;;;17.08;7.18;;;;;;;;;;5032638;28;20025;-68
2024/01/10 07:12:04;;;;;;;17.95;7.40;;;;;;;;;;5032724;28;20412;-67
2024/01/10 07:14:29;;;;;;;22.35;8.73;;;;;;;;;;5032601;28;20033;-67
2024/01/10 07:16:56;;;;;;;14.63;7.30;;;;;;;;;;5032511;28;20046;-67
2024/01/10 07:19:23;;;;;;;12.80;7.00;;;;;;;;;;5032891;28;20300;-68
2024/01/10 07:21:49;;;;;;;18.10;6.78;;;;;;;;;;5032875;28;20488;-67
2024/01/10 07:24:14;;;;;;;18.90;7.60;;;;;;;;;;5035627;28;20022;-67
2024/01/10 07:26:39;;;;;;;16.23;7.13;;;;;;;;;;5036558;28;20247;-67
2024/01/10 07:29:08;;;;;;;17.33;6.13;;;;;;;;;;5036098;28;20029;-67
2024/01/10 07:31:33;;;;;;;19.55;7.78;;;;;;;;;;5036215;28;20036;-67
2024/01/10 07:33:58;;;;;;;19.60;9.38;;;;;;;;;;5036274;28;20395;-67
2024/01/10 07:36:26;;;;;;;20.05;7.45;;;;;;;;;;5036239;28;20100;-67
2024/01/10 07:38:51;;;;;;;17.42;7.45;;;;;;;;;;5036155;28;20523;-67
2024/01/10 07:41:16;;;;;;;21.83;6.38;;;;;;;;;;5036074;28;20025;-67
2024/01/10 07:43:42;;;;;;;17.67;8.27;;;;;;;;;;5035838;28;20381;-67
2024/01/10 07:46:07;;;;;;;14.77;7.57;;;;;;;;;;5035807;28;20676;-67
2024/01/10 07:48:32;;;;;;;14.47;6.47;;;;;;;;;;5035781;28;20592;-67
2024/01/10 07:50:57;;;;;;;17.40;7.97;;;;;;;;;;5035830;28;20045;-67
2024/01/10 07:53:25;;;;;;;20.63;8.33;;;;;;;;;;5035632;28;20326;-67
2024/01/10 07:55:51;;;;;;;15.52;7.15;;;;;;;;;;5035509;28;20242;-67
2024/01/10 07:58:16;;;;;;;15.10;7.00;;;;;;;;;;5035742;28;20067;-67
2024/01/10 08:00:41;;;;;;;16.13;7.00;;;;;;;;;;5035472;28;20022;-67
2024/01/10 08:03:06;;;;;;;20.03;7.10;;;;;;;;;;5035527;28;20064;-67
2024/01/10 08:05:32;;;;;;;22.97;7.97;;;;;;;;;;5035497;28;20282;-67
2024/01/10 08:07:58;;;;;;;21.80;7.32;;;;;;;;;;5035342;28;20381;-67
2024/01/10 08:10:23;;;;;;;18.77;7.65;;;;;;;;;;5035444;28;20104;-67
2024/01/10 08:12:49;;;;;;;17.02;7.05;;;;;;;;;;5035214;28;20139;-67
2024/01/10 08:15:14;;;;;;;17.52;7.93;;;;;;;;;;5035094;28;20028;-67
2024/01/10 08:17:39;;;;;;;15.65;7.07;;;;;;;;;;5035509;28;20128;-68
2024/01/10 08:20:06;;;;;;;16.43;6.97;;;;;;;;;;5035129;28;20026;-67
2024/01/10 08:22:31;;;;;;;21.88;7.88;;;;;;;;;;5035331;28;20297;-67
2024/01/10 08:24:56;;;;;;;20.23;8.88;;;;;;;;;;5035059;28;20017;-67
2024/01/10 08:27:22;;;;;;;22.60;8.10;;;;;;;;;;5034965;28;20104;-67
2024/01/10 08:29:47;;;;;;;15.27;7.70;;;;;;;;;;5034892;28;20369;-67
2024/01/10 08:32:13;;;;;;;15.37;7.60;;;;;;;;;;5034896;28;20101;-67
2024/01/10 08:34:38;;;;;;;20.10;8.13;;;;;;;;;;5033725;28;20325;-67
2024/01/10 08:37:03;;;;;;;20.20;8.23;;;;;;;;;;5035277;28;20653;-67
2024/01/10 08:39:30;;;;;;;16.15;7.45;;;;;;;;;;5034742;28;20445;-67
2024/01/10 08:41:55;;;;;;;17.65;7.97;;;;;;;;;;5034961;28;20029;-67
2024/01/10 08:44:21;;;;;;;20.25;9.13;;;;;;;;;;5034635;28;20105;-67
2024/01/10 08:46:46;;;;;;;26.27;8.60;;;;;;;;;;5034857;28;20022;-67
2024/01/10 08:49:11;;;;;;;26.10;10.40;;;;;;;;;;5034784;28;20029;-67
2024/01/10 08:51:37;;;;;;;19.13;8.27;;;;;;;;;;5034551;28;20381;-67
2024/01/10 08:54:02;;;;;;;19.23;8.40;;;;;;;;;;5034528;28;20576;-67
2024/01/10 08:56:27;;;;;;;19.55;9.43;;;;;;;;;;5034407;28;20606;-67
2024/01/10 08:58:52;;;;;;;20.93;8.43;;;;;;;;;;5034404;28;20028;-68
2024/01/10 09:01:17;;;;;;;18.67;8.35;;;;;;;;;;5034670;28;20265;-67
2024/01/10 09:03:43;;;;;;;26.73;10.40;;;;;;;;;;5034259;28;20026;-67
2024/01/10 09:06:08;;;;;;;18.83;9.13;;;;;;;;;;5034307;28;20257;-67
2024/01/10 09:08:34;;;;;;;18.17;9.03;;;;;;;;;;5034242;28;20750;-67
2024/01/10 09:10:59;;;;;;;19.52;9.05;;;;;;;;;;5034102;28;20365;-67
2024/01/10 09:13:24;;;;;;;20.30;9.68;;;;;;;;;;5034023;28;20417;-67
2024/01/10 09:15:49;;;;;;;18.13;8.40;;;;;;;;;;5033946;28;20100;-67
2024/01/10 09:18:15;;;;;;;25.77;9.40;;;;;;;;;;5034063;28;20381;-67
2024/01/10 09:20:40;;;;;;;20.23;9.43;;;;;;;;;;5034024;28;20281;-67
2024/01/10 09:23:05;;;;;;;21.23;9.73;;;;;;;;;;5033919;28;20286;-68
2024/01/10 09:25:30;;;;;;;22.57;9.23;;;;;;;;;;5033882;28;20242;-67
2024/01/10 09:27:55;;;;;;;19.00;9.87;;;;;;;;;;5033863;28;20258;-67
2024/01/10 09:30:21;;;;;;;19.00;9.27;;;;;;;;;;5033739;28;20392;-67
2024/01/10 09:32:46;;;;;;;16.67;9.63;;;;;;;;;;5034039;28;20021;-67
2024/01/10 09:35:12;;;;;;;17.40;9.07;;;;;;;;;;5033955;28;20025;-67
2024/01/10 09:37:38;;;;;;;17.15;8.30;;;;;;;;;;5033918;28;20087;-67
2024/01/10 09:40:03;;;;;;;22.43;10.83;;;;;;;;;;5033711;28;20025;-67
2024/01/10 09:42:31;;;;;;;16.95;9.45;;;;;;;;;;5033535;28;20330;-67
2024/01/10 09:44:56;;;;;;;22.42;10.00;;;;;;;;;;5033739;28;20049;-67
2024/01/10 09:47:22;;;;;;;24.90;10.95;;;;;;;;;;5033611;28;20401;-67
2024/01/10 09:49:47;;;;;;;18.75;10.02;;;;;;;;;;5033696;28;20362;-67
2024/01/10 09:52:25;;;;;;;21.48;9.38;;;;;;;;;;5033493;28;20524;-67
2024/01/10 09:54:54;;;;;;;22.40;9.63;;;;;;;;;;5033464;28;20030;-67
2024/01/10 09:57:20;;;;;;;24.00;9.32;;;;;;;;;;5033388;28;20045;-67
2024/01/10 09:59:47;;;;;;;20.08;9.10;;;;;;;;;;5033325;28;20025;-67
2024/01/10 10:02:13;;;;;;;23.77;9.20;;;;;;;;;;5033587;28;20529;-67
2024/01/10 10:04:38;;;;;;;18.95;8.88;;;;;;;;;;5033296;28;20109;-67
2024/01/10 10:07:04;;;;;;;21.83;9.77;;;;;;;;;;5033419;28;20022;-67
2024/01/10 10:09:32;;;;;;;19.73;9.20;;;;;;;;;;5033301;28;20049;-67
2024/01/10 10:11:57;;;;;;;20.67;10.18;;;;;;;;;;5033164;28;20337;-67
2024/01/10 10:14:26;;;;;;;19.00;8.67;;;;;;;;;;5033151;28;20100;-67
2024/01/10 10:16:51;;;;;;;18.42;8.45;;;;;;;;;;5033183;28;20287;-67
2024/01/10 10:19:23;;;;;;;18.60;9.25;;;;;;;;;;5033228;28;20493;-67
2024/01/10 10:21:48;;;;;;;;;;;;;;;;;;5033606;28;20033;-67
2024/01/10 10:24:13;;;;;;;22.20;8.77;;;;;;;;;;5033187;28;19912;-68
2024/01/10 10:26:40;;;;;;;18.63;8.88;;;;;;;;;;5033382;28;20075;-67
2024/01/10 10:29:05;;;;;;;23.08;9.48;;;;;;;;;;5033349;28;20018;-67
2024/01/10 10:31:31;;;;;;;24.27;9.48;;;;;;;;;;5032971;28;20542;-67
2024/01/10 10:33:58;;;;;;;28.70;9.95;;;;;;;;;;5033356;28;20022;-67
2024/01/10 10:36:24;;;;;;;21.73;10.10;;;;;;;;;;5033010;28;20022;-67
2024/01/10 10:38:49;;;;;;;20.25;8.57;;;;;;;;;;5033262;28;20071;-67
2024/01/10 10:41:15;;;;;;;18.25;9.23;;;;;;;;;;5032959;28;20504;-67
2024/01/10 10:43:40;;;;;;;14.43;8.15;;;;;;;;;;5033226;28;20025;-67
2024/01/10 10:46:06;;;;;;;16.52;9.30;;;;;;;;;;5033047;28;20018;-67
2024/01/10 10:48:32;;;;;;;17.42;9.02;;;;;;;;;;5033037;28;20022;-67
2024/01/10 10:51:03;;;;;;;21.90;9.63;;;;;;;;;;5032834;28;20025;-67
2024/01/10 10:53:29;;;;;;;20.08;8.63;;;;;;;;;;5032863;28;20041;-67
2024/01/10 10:55:56;;;;;;;22.23;9.07;;;;;;;;;;5033040;28;20045;-67
2024/01/10 10:58:22;;;;;;;21.40;9.88;;;;;;;;;;5034727;28;20116;-67
2024/01/10 11:00:47;;;;;;;20.08;9.23;;;;;;;;;;5036903;28;20082;-67
2024/01/10 11:03:13;;;;;;;20.50;9.18;;;;;;;;;;5036846;28;20025;-67
2024/01/10 11:05:40;;;;;;;23.30;9.95;;;;;;;;;;5036612;28;20025;-67
2024/01/10 11:08:07;;;;;;;16.48;9.25;;;;;;;;;;5036449;28;20029;-67
2024/01/10 11:10:34;;;;;;;16.48;8.18;;;;;;;;;;5036335;28;20078;-67
2024/01/10 11:13:18;;;;;;;18.42;8.88;;;;;;;;;;5036393;28;20144;-67
2024/01/10 11:16:03;;;;;;;19.88;9.80;;;;;;;;;;5036579;28;20052;-67
2024/01/10 11:18:46;;;;;;;18.48;9.27;;;;;;;;;;5036572;28;20533;-67
2024/01/10 11:21:12;;;;;;;20.23;9.63;;;;;;;;;;5036240;28;20108;-67
2024/01/10 11:23:37;;;;;;;19.67;9.35;;;;;;;;;;5036416;28;20100;-67
2024/01/10 11:26:02;;;;;;;16.97;8.57;;;;;;;;;;5036273;28;20075;-67
2024/01/10 11:28:30;;;;;;;23.77;9.05;;;;;;;;;;5036065;28;20029;-67
2024/01/10 11:30:56;;;;;;;20.05;10.00;;;;;;;;;;5035994;28;20029;-67
2024/01/10 11:33:32;;;;;;;21.67;10.40;;;;;;;;;;5036253;28;20104;-67
2024/01/10 11:36:17;;;;;;;17.80;8.57;;;;;;;;;;5035933;28;20075;-67
2024/01/10 11:38:54;;;;;;;21.67;9.63;;;;;;;;;;5036149;28;20362;-67
2024/01/10 11:41:21;;;;;;;16.98;9.45;;;;;;;;;;5035920;28;20540;-67
2024/01/10 11:44:06;;;;;;;21.95;9.82;;;;;;;;;;5036081;28;20539;-67
2024/01/10 11:46:32;;;;;;;19.67;9.43;;;;;;;;;;5035708;28;20025;-67
2024/01/10 11:48:58;;;;;;;15.98;8.38;;;;;;;;;;5035708;28;20021;-67
2024/01/10 11:51:24;;;;;;;20.13;9.82;;;;;;;;;;5035816;28;20420;-68
2024/01/10 11:53:50;;;;;;;22.48;8.82;;;;;;;;;;5035896;28;20092;-67
2024/01/10 11:56:16;;;;;;;22.38;9.40;;;;;;;;;;5035852;28;20032;-67
2024/01/10 11:59:00;;;;;;;24.02;11.20;;;;;;;;;;5035806;28;20465;-67
2024/01/10 12:01:27;;;;;;;20.33;8.63;;;;;;;;;;5035535;28;20473;-67
2024/01/10 12:03:55;;;;;;;28.42;9.70;;;;;;;;;;5035477;28;20056;-67
2024/01/10 12:06:21;;;;;;;19.98;9.23;;;;;;;;;;5035521;28;20520;-67
2024/01/10 12:08:46;;;;;;;13.88;8.25;;;;;;;;;;5035127;28;20056;-67
2024/01/10 12:11:11;;;;;;;18.38;10.13;;;;;;;;;;5035259;28;20382;-67
2024/01/10 12:13:37;;;;;;;23.52;10.38;;;;;;;;;;5035434;28;20014;-67
2024/01/10 12:16:02;;;;;;;23.27;10.15;;;;;;;;;;5035099;28;20488;-67
2024/01/10 12:18:27;;;;;;;19.50;9.73;;;;;;;;;;5035218;28;20014;-67
2024/01/10 12:20:53;;;;;;;22.23;10.27;;;;;;;;;;5035143;28;20029;-67
2024/01/10 12:23:18;;;;;;;21.20;10.15;;;;;;;;;;5035309;28;20262;-67
2024/01/10 12:25:43;;;;;;;22.38;9.52;;;;;;;;;;5035305;28;20394;-67
2024/01/10 12:28:09;;;;;;;22.55;10.25;;;;;;;;;;5035036;28;20025;-67
2024/01/10 12:30:34;;;;;;;25.10;10.20;;;;;;;;;;5034942;28;20033;-67
2024/01/10 12:33:00;;;;;;;19.98;9.70;;;;;;;;;;5034898;28;20243;-67
2024/01/10 12:35:25;;;;;;;18.02;8.60;;;;;;;;;;5034847;28;20017;-67
2024/01/10 12:37:55;;;;;;;30.73;10.20;;;;;;;;;;5034901;28;20401;-67
2024/01/10 12:40:20;;;;;;;26.45;9.55;;;;;;;;;;5035021;28;20346;-67
2024/01/10 12:42:45;;;;;;;19.10;9.05;;;;;;;;;;5034775;28;20057;-67
2024/01/10 12:45:20;;;;;;;21.73;10.60;;;;;;;;;;5034956;28;20030;-67
2024/01/10 12:47:46;;;;;;;17.20;9.82;;;;;;;;;;5034991;28;20412;-67
2024/01/10 12:50:11;;;;;;;18.52;10.05;;;;;;;;;;5034778;28;20021;-67
2024/01/10 12:52:39;;;;;;;22.25;11.18;;;;;;;;;;5034511;28;20022;-67
2024/01/10 12:55:05;;;;;;;19.85;9.73;;;;;;;;;;5034470;28;20021;-67
2024/01/10 12:57:30;;;;;;;18.88;9.55;;;;;;;;;;5034472;28;20026;-67
2024/01/10 12:59:55;;;;;;;19.10;9.93;;;;;;;;;;5034396;28;20018;-67
2024/01/10 13:02:21;;;;;;;23.87;10.27;;;;;;;;;;5034367;28;20247;-67
2024/01/10 13:04:46;;;;;;;18.10;9.60;;;;;;;;;;5034652;28;20328;-67
2024/01/10 13:07:11;;;;;;;22.73;10.85;;;;;;;;;;5034309;28;20068;-67
2024/01/10 13:09:37;;;;;;;23.52;10.45;;;;;;;;;;5034206;28;20040;-67
2024/01/10 13:12:03;;;;;;;18.73;9.80;;;;;;;;;;5034183;28;20030;-67
2024/01/10 13:14:31;;;;;;;21.42;10.32;;;;;;;;;;5034302;28;20014;-67
2024/01/10 13:16:56;;;;;;;20.70;9.98;;;;;;;;;;5034150;28;20442;-67
2024/01/10 13:19:21;;;;;;;25.02;10.55;;;;;;;;;;5034064;28;20105;-67
2024/01/10 13:21:46;;;;;;;24.87;10.37;;;;;;;;;;5033429;28;20084;-67
2024/01/10 13:24:12;;;;;;;16.53;8.40;;;;;;;;;;5033957;28;20793;-67
2024/01/10 13:26:37;;;;;;;19.00;9.40;;;;;;;;;;5033914;28;20715;-67
2024/01/10 13:29:02;;;;;;;24.57;10.97;;;;;;;;;;5034118;28;20029;-68
2024/01/10 13:31:28;;;;;;;20.45;9.68;;;;;;;;;;5034001;28;20313;-67
2024/01/10 13:33:54;;;;;;;24.02;10.20;;;;;;;;;;5033792;28;20025;-67
2024/01/10 13:36:19;;;;;;;20.30;10.20;;;;;;;;;;5033695;28;20020;-67
2024/01/10 13:38:44;;;;;;;19.75;10.25;;;;;;;;;;5033640;28;20390;-67
2024/01/10 13:41:10;;;;;;;24.42;10.30;;;;;;;;;;5033661;28;20038;-68
2024/01/10 13:43:35;;;;;;;18.92;9.23;;;;;;;;;;5033716;28;20021;-67
2024/01/10 13:46:01;;;;;;;21.60;10.43;;;;;;;;;;5033861;28;20025;-67
2024/01/10 13:48:26;;;;;;;21.33;9.93;;;;;;;;;;5033570;28;20243;-67
2024/01/10 13:50:52;;;;;;;20.42;9.52;;;;;;;;;;5033474;28;20029;-68
2024/01/10 13:53:17;;;;;;;20.52;10.05;;;;;;;;;;5033556;28;20389;-67
2024/01/10 13:55:42;;;;;;;20.42;10.70;;;;;;;;;;5033362;28;20010;-67
2024/01/10 13:58:07;;;;;;;20.55;9.73;;;;;;;;;;5033450;28;20071;-68
2024/01/10 14:00:33;;;;;;;15.10;8.37;;;;;;;;;;5033445;28;20091;-67
2024/01/10 14:03:00;;;;;;;15.37;7.90;;;;;;;;;;5033424;28;20251;-67
2024/01/10 14:05:26;;;;;;;22.95;9.27;;;;;;;;;;5033350;28;20245;-67
2024/01/10 14:07:52;;;;;;;17.48;9.68;;;;;;;;;;5033538;28;20025;-67
2024/01/10 14:10:18;;;;;;;18.23;9.38;;;;;;;;;;5033458;28;20041;-68
2024/01/10 14:12:44;;;;;;;25.17;9.85;;;;;;;;;;5033527;28;20040;-67
2024/01/10 14:15:09;;;;;;;22.13;10.23;;;;;;;;;;5033139;28;20526;-67
2024/01/10 14:17:34;;;;;;;24.23;9.27;;;;;;;;;;5033082;28;20049;-67
2024/01/10 14:20:00;;;;;;;24.00;10.07;;;;;;;;;;5033472;28;20473;-67